ADDS METAR Data

Data at: 0507 UTC 20 Apr 2018

METAR for:KEEN (Keene/Hopkins Arpt, NH, US)
Text:KEEN 200456Z AUTO 29006KT 10SM -RA FEW044 OVC090 01/M02 A2989 RMK AO2 RAE08B24 SLP142 P0000 T00111022 400830011 FZRANO
Temperature: 1.1°C ( 34°F)
Dewpoint: -2.2°C ( 28°F) [RH = 79%]
Pressure (altimeter):29.89 inches Hg (1012.3 mb) [Sea level pressure: 1014.2 mb]
Winds:from the WNW (290 degrees) at 7 MPH (6 knots; 3.1 m/s)
Visibility:10 or more sm (16+ km)
Ceiling:9000 feet AGL
Clouds: few clouds at 4400 feet AGL, overcast cloud deck at 9000 feet AGL
Weather:-RA (light rain)
QC Flag:automated observation with no human augmentation